CYNL

METAR CYNL 191200Z AUTO 31006KT SCT034 M01/M06 A3029 RMK AO1 SLP287
METAR
LOCATION
CYNL
DATE - TIME
191200Z
WIND
310 TRUE @ 6 KNOTS
VISIBILITY
RUNWAY VISUAL RANGE
NOT REPORTED
WEATHER
CLOUDINESS
SCT034
TEMP / DEWPOINT
-1 ºC / -6 ºC
ALTIMETER
30.29 in. Hg
RECENT WEATHER
NOT REPORTED
WIND SHEAR
NOT REPORTED
REMARKS
RMK AO1 SLP287
SEA LEVEL PRESSURE: hPa

CYNL

SPECI CYNL 191117Z AUTO 31004KT OVC030 M00/M06 A3028 RMK AO1 PRESRR SLP281
SPECI
LOCATION
CYNL
DATE - TIME
191117Z
WIND
310 TRUE @ 4 KNOTS
VISIBILITY
RUNWAY VISUAL RANGE
NOT REPORTED
WEATHER
CLOUDINESS
OVC030
TEMP / DEWPOINT
-0 ºC / -6 ºC
ALTIMETER
30.28 in. Hg
RECENT WEATHER
NOT REPORTED
WIND SHEAR
NOT REPORTED
REMARKS
RMK AO1 PRESRR SLP281
SEA LEVEL PRESSURE: hPa

CYNL

SPECI CYNL 191102Z AUTO 32008KT BKN026 OVC033 00/M05 A3028 RMK AO1 PRESRR SLP281
SPECI
LOCATION
CYNL
DATE - TIME
191102Z
WIND
320 TRUE @ 8 KNOTS
VISIBILITY
RUNWAY VISUAL RANGE
NOT REPORTED
WEATHER
CLOUDINESS
BKN026 OVC033
TEMP / DEWPOINT
0 ºC / -5 ºC
ALTIMETER
30.28 in. Hg
RECENT WEATHER
NOT REPORTED
WIND SHEAR
NOT REPORTED
REMARKS
RMK AO1 PRESRR SLP281
SEA LEVEL PRESSURE: hPa

Your time UTC time
 
 
Weather data provided by AXYS Technologies Inc., www.axystechnologies.com
 
Station History